sensor_id;sensor_type;location;lat;lon;timestamp;P1;durP1;ratioP1;P2;durP2;ratioP2
20411;SDS011;10365;52.578;8.138;2024-01-11T00:01:09;20.45;;;8.48;;
20411;SDS011;10365;52.578;8.138;2024-01-11T00:03:35;21.55;;;8.40;;
20411;SDS011;10365;52.578;8.138;2024-01-11T00:06:00;21.38;;;8.77;;
20411;SDS011;10365;52.578;8.138;2024-01-11T00:08:26;25.45;;;8.68;;
20411;SDS011;10365;52.578;8.138;2024-01-11T00:10:51;24.95;;;8.77;;
20411;SDS011;10365;52.578;8.138;2024-01-11T00:13:16;22.92;;;8.70;;
20411;SDS011;10365;52.578;8.138;2024-01-11T00:15:41;22.88;;;9.23;;
20411;SDS011;10365;52.578;8.138;2024-01-11T00:18:07;23.42;;;9.40;;
20411;SDS011;10365;52.578;8.138;2024-01-11T00:20:32;18.95;;;7.50;;
20411;SDS011;10365;52.578;8.138;2024-01-11T00:22:57;29.33;;;8.65;;
20411;SDS011;10365;52.578;8.138;2024-01-11T00:25:22;25.48;;;9.85;;
20411;SDS011;10365;52.578;8.138;2024-01-11T00:27:48;24.63;;;9.50;;
20411;SDS011;10365;52.578;8.138;2024-01-11T00:30:14;29.90;;;10.10;;
20411;SDS011;10365;52.578;8.138;2024-01-11T00:32:39;19.90;;;8.40;;
20411;SDS011;10365;52.578;8.138;2024-01-11T00:35:04;30.45;;;9.40;;
20411;SDS011;10365;52.578;8.138;2024-01-11T00:37:30;27.48;;;9.40;;
20411;SDS011;10365;52.578;8.138;2024-01-11T00:39:55;26.20;;;9.60;;
20411;SDS011;10365;52.578;8.138;2024-01-11T00:42:20;20.67;;;9.20;;
20411;SDS011;10365;52.578;8.138;2024-01-11T00:44:46;28.90;;;9.85;;
20411;SDS011;10365;52.578;8.138;2024-01-11T00:47:11;28.42;;;10.82;;
20411;SDS011;10365;52.578;8.138;2024-01-11T00:49:36;27.92;;;11.05;;
20411;SDS011;10365;52.578;8.138;2024-01-11T00:52:02;27.33;;;10.57;;
20411;SDS011;10365;52.578;8.138;2024-01-11T00:54:27;21.13;;;9.43;;
20411;SDS011;10365;52.578;8.138;2024-01-11T00:56:52;25.75;;;10.85;;
20411;SDS011;10365;52.578;8.138;2024-01-11T00:59:18;23.25;;;8.98;;
20411;SDS011;10365;52.578;8.138;2024-01-11T01:01:47;32.03;;;9.25;;
20411;SDS011;10365;52.578;8.138;2024-01-11T01:04:12;27.20;;;11.60;;
20411;SDS011;10365;52.578;8.138;2024-01-11T01:06:37;22.58;;;10.27;;
20411;SDS011;10365;52.578;8.138;2024-01-11T01:09:02;31.88;;;10.40;;
20411;SDS011;10365;52.578;8.138;2024-01-11T01:11:28;20.08;;;8.35;;
20411;SDS011;10365;52.578;8.138;2024-01-11T01:13:53;20.58;;;9.07;;
20411;SDS011;10365;52.578;8.138;2024-01-11T01:16:18;26.38;;;9.40;;
20411;SDS011;10365;52.578;8.138;2024-01-11T01:18:44;25.70;;;10.23;;
20411;SDS011;10365;52.578;8.138;2024-01-11T01:21:09;30.52;;;11.05;;
20411;SDS011;10365;52.578;8.138;2024-01-11T01:23:34;20.50;;;9.25;;
20411;SDS011;10365;52.578;8.138;2024-01-11T01:25:59;23.63;;;9.77;;
20411;SDS011;10365;52.578;8.138;2024-01-11T01:28:25;24.08;;;9.60;;
20411;SDS011;10365;52.578;8.138;2024-01-11T01:30:50;26.33;;;8.57;;
20411;SDS011;10365;52.578;8.138;2024-01-11T01:33:15;23.95;;;9.70;;
20411;SDS011;10365;52.578;8.138;2024-01-11T01:35:41;24.38;;;11.23;;
20411;SDS011;10365;52.578;8.138;2024-01-11T01:38:06;23.70;;;10.85;;
20411;SDS011;10365;52.578;8.138;2024-01-11T01:40:31;27.98;;;9.85;;
20411;SDS011;10365;52.578;8.138;2024-01-11T01:42:57;31.45;;;11.07;;
20411;SDS011;10365;52.578;8.138;2024-01-11T01:45:23;29.95;;;11.57;;
20411;SDS011;10365;52.578;8.138;2024-01-11T01:47:48;26.40;;;10.55;;
20411;SDS011;10365;52.578;8.138;2024-01-11T01:50:13;24.17;;;10.07;;
20411;SDS011;10365;52.578;8.138;2024-01-11T01:52:39;24.50;;;10.32;;
20411;SDS011;10365;52.578;8.138;2024-01-11T01:55:05;23.40;;;10.65;;
20411;SDS011;10365;52.578;8.138;2024-01-11T01:57:32;28.85;;;11.15;;
20411;SDS011;10365;52.578;8.138;2024-01-11T01:59:59;22.02;;;9.75;;
20411;SDS011;10365;52.578;8.138;2024-01-11T02:02:25;34.65;;;11.93;;
20411;SDS011;10365;52.578;8.138;2024-01-11T02:04:50;30.83;;;12.23;;
20411;SDS011;10365;52.578;8.138;2024-01-11T02:07:15;26.33;;;11.05;;
20411;SDS011;10365;52.578;8.138;2024-01-11T02:09:41;24.92;;;11.05;;
20411;SDS011;10365;52.578;8.138;2024-01-11T02:12:07;29.25;;;10.77;;
20411;SDS011;10365;52.578;8.138;2024-01-11T02:14:37;25.70;;;10.77;;
20411;SDS011;10365;52.578;8.138;2024-01-11T02:17:02;32.50;;;11.52;;
20411;SDS011;10365;52.578;8.138;2024-01-11T02:19:28;27.65;;;11.75;;
20411;SDS011;10365;52.578;8.138;2024-01-11T02:21:53;25.25;;;9.63;;
20411;SDS011;10365;52.578;8.138;2024-01-11T02:24:19;30.75;;;12.52;;
20411;SDS011;10365;52.578;8.138;2024-01-11T02:26:58;27.15;;;10.05;;
20411;SDS011;10365;52.578;8.138;2024-01-11T02:29:25;24.75;;;11.10;;
20411;SDS011;10365;52.578;8.138;2024-01-11T02:31:50;26.45;;;10.10;;
20411;SDS011;10365;52.578;8.138;2024-01-11T02:34:15;26.55;;;11.05;;
20411;SDS011;10365;52.578;8.138;2024-01-11T02:36:41;32.42;;;10.30;;
20411;SDS011;10365;52.578;8.138;2024-01-11T02:39:06;24.88;;;10.75;;
20411;SDS011;10365;52.578;8.138;2024-01-11T02:41:32;20.77;;;9.23;;
20411;SDS011;10365;52.578;8.138;2024-01-11T02:43:57;27.33;;;9.88;;
20411;SDS011;10365;52.578;8.138;2024-01-11T02:46:23;22.38;;;10.95;;
20411;SDS011;10365;52.578;8.138;2024-01-11T02:48:48;23.42;;;9.63;;
20411;SDS011;10365;52.578;8.138;2024-01-11T02:51:14;24.60;;;9.57;;
20411;SDS011;10365;52.578;8.138;2024-01-11T02:53:39;23.42;;;9.82;;
20411;SDS011;10365;52.578;8.138;2024-01-11T02:56:04;22.75;;;9.13;;
20411;SDS011;10365;52.578;8.138;2024-01-11T02:58:29;26.50;;;10.95;;
20411;SDS011;10365;52.578;8.138;2024-01-11T03:00:55;26.90;;;10.10;;
20411;SDS011;10365;52.578;8.138;2024-01-11T03:03:20;22.85;;;9.40;;
20411;SDS011;10365;52.578;8.138;2024-01-11T03:05:46;22.50;;;9.43;;
20411;SDS011;10365;52.578;8.138;2024-01-11T03:08:11;21.73;;;9.38;;
20411;SDS011;10365;52.578;8.138;2024-01-11T03:10:39;20.88;;;10.00;;
20411;SDS011;10365;52.578;8.138;2024-01-11T03:13:05;31.48;;;10.18;;
20411;SDS011;10365;52.578;8.138;2024-01-11T03:15:30;28.52;;;10.10;;
20411;SDS011;10365;52.578;8.138;2024-01-11T03:17:56;22.33;;;8.98;;
20411;SDS011;10365;52.578;8.138;2024-01-11T03:20:21;24.40;;;9.50;;
20411;SDS011;10365;52.578;8.138;2024-01-11T03:22:49;26.52;;;9.10;;
20411;SDS011;10365;52.578;8.138;2024-01-11T03:25:15;21.83;;;8.73;;
20411;SDS011;10365;52.578;8.138;2024-01-11T03:27:40;25.40;;;9.63;;
20411;SDS011;10365;52.578;8.138;2024-01-11T03:30:06;21.70;;;9.57;;
20411;SDS011;10365;52.578;8.138;2024-01-11T03:32:31;26.70;;;10.88;;
20411;SDS011;10365;52.578;8.138;2024-01-11T03:34:56;26.05;;;11.07;;
20411;SDS011;10365;52.578;8.138;2024-01-11T03:37:22;25.63;;;9.35;;
20411;SDS011;10365;52.578;8.138;2024-01-11T03:39:47;21.85;;;8.50;;
20411;SDS011;10365;52.578;8.138;2024-01-11T03:42:12;26.02;;;9.70;;
20411;SDS011;10365;52.578;8.138;2024-01-11T03:44:38;22.88;;;9.25;;
20411;SDS011;10365;52.578;8.138;2024-01-11T03:47:03;25.67;;;9.55;;
20411;SDS011;10365;52.578;8.138;2024-01-11T03:49:29;19.73;;;9.65;;
20411;SDS011;10365;52.578;8.138;2024-01-11T03:51:54;29.77;;;10.57;;
20411;SDS011;10365;52.578;8.138;2024-01-11T03:54:19;21.85;;;9.25;;
20411;SDS011;10365;52.578;8.138;2024-01-11T03:56:44;26.98;;;9.65;;
20411;SDS011;10365;52.578;8.138;2024-01-11T03:59:10;23.67;;;10.13;;
20411;SDS011;10365;52.578;8.138;2024-01-11T04:01:39;24.15;;;9.80;;
20411;SDS011;10365;52.578;8.138;2024-01-11T04:04:05;26.95;;;10.57;;
20411;SDS011;10365;52.578;8.138;2024-01-11T04:06:31;30.92;;;11.27;;
20411;SDS011;10365;52.578;8.138;2024-01-11T04:08:56;43.28;;;12.82;;
20411;SDS011;10365;52.578;8.138;2024-01-11T04:11:21;29.80;;;11.15;;
20411;SDS011;10365;52.578;8.138;2024-01-11T04:13:47;39.15;;;12.77;;
20411;SDS011;10365;52.578;8.138;2024-01-11T04:16:12;31.17;;;10.77;;
20411;SDS011;10365;52.578;8.138;2024-01-11T04:18:38;27.52;;;9.73;;
20411;SDS011;10365;52.578;8.138;2024-01-11T04:21:03;31.13;;;10.65;;
20411;SDS011;10365;52.578;8.138;2024-01-11T04:23:29;28.17;;;10.95;;
20411;SDS011;10365;52.578;8.138;2024-01-11T04:25:54;23.10;;;10.02;;
20411;SDS011;10365;52.578;8.138;2024-01-11T04:28:20;29.50;;;9.50;;
20411;SDS011;10365;52.578;8.138;2024-01-11T04:30:45;33.30;;;10.63;;
20411;SDS011;10365;52.578;8.138;2024-01-11T04:33:10;28.60;;;11.50;;
20411;SDS011;10365;52.578;8.138;2024-01-11T04:35:36;29.33;;;10.48;;
20411;SDS011;10365;52.578;8.138;2024-01-11T04:38:01;27.33;;;9.85;;
20411;SDS011;10365;52.578;8.138;2024-01-11T04:40:26;25.35;;;10.93;;
20411;SDS011;10365;52.578;8.138;2024-01-11T04:42:52;33.97;;;11.80;;
20411;SDS011;10365;52.578;8.138;2024-01-11T04:45:17;33.53;;;10.18;;
20411;SDS011;10365;52.578;8.138;2024-01-11T04:47:42;30.08;;;11.63;;
20411;SDS011;10365;52.578;8.138;2024-01-11T04:50:08;26.80;;;10.30;;
20411;SDS011;10365;52.578;8.138;2024-01-11T04:52:33;32.22;;;10.10;;
20411;SDS011;10365;52.578;8.138;2024-01-11T04:54:58;29.33;;;11.80;;
20411;SDS011;10365;52.578;8.138;2024-01-11T04:57:24;20.52;;;9.57;;
20411;SDS011;10365;52.578;8.138;2024-01-11T04:59:49;23.92;;;10.10;;
20411;SDS011;10365;52.578;8.138;2024-01-11T05:02:14;31.20;;;10.88;;
20411;SDS011;10365;52.578;8.138;2024-01-11T05:04:40;27.70;;;10.85;;
20411;SDS011;10365;52.578;8.138;2024-01-11T05:07:05;24.45;;;11.00;;
20411;SDS011;10365;52.578;8.138;2024-01-11T05:09:31;30.00;;;11.10;;
20411;SDS011;10365;52.578;8.138;2024-01-11T05:11:56;23.35;;;11.05;;
20411;SDS011;10365;52.578;8.138;2024-01-11T05:14:22;23.75;;;9.68;;
20411;SDS011;10365;52.578;8.138;2024-01-11T05:16:47;26.67;;;10.35;;
20411;SDS011;10365;52.578;8.138;2024-01-11T05:19:13;26.85;;;9.02;;
20411;SDS011;10365;52.578;8.138;2024-01-11T05:21:38;28.75;;;10.25;;
20411;SDS011;10365;52.578;8.138;2024-01-11T05:24:04;33.83;;;11.95;;
20411;SDS011;10365;52.578;8.138;2024-01-11T05:26:29;29.13;;;11.45;;
20411;SDS011;10365;52.578;8.138;2024-01-11T05:28:55;23.23;;;10.07;;
20411;SDS011;10365;52.578;8.138;2024-01-11T05:31:20;31.30;;;11.25;;
20411;SDS011;10365;52.578;8.138;2024-01-11T05:33:45;31.92;;;10.52;;
20411;SDS011;10365;52.578;8.138;2024-01-11T05:36:11;25.48;;;9.98;;
20411;SDS011;10365;52.578;8.138;2024-01-11T05:38:38;25.05;;;11.13;;
20411;SDS011;10365;52.578;8.138;2024-01-11T05:41:03;28.00;;;10.98;;
20411;SDS011;10365;52.578;8.138;2024-01-11T05:43:29;25.45;;;10.73;;
20411;SDS011;10365;52.578;8.138;2024-01-11T05:45:54;28.08;;;10.35;;
20411;SDS011;10365;52.578;8.138;2024-01-11T05:48:19;25.10;;;9.73;;
20411;SDS011;10365;52.578;8.138;2024-01-11T05:50:44;33.05;;;12.35;;
20411;SDS011;10365;52.578;8.138;2024-01-11T05:53:10;27.33;;;11.18;;
20411;SDS011;10365;52.578;8.138;2024-01-11T05:55:36;29.33;;;10.98;;
20411;SDS011;10365;52.578;8.138;2024-01-11T05:58:01;30.88;;;10.93;;
20411;SDS011;10365;52.578;8.138;2024-01-11T06:00:26;34.83;;;11.52;;
20411;SDS011;10365;52.578;8.138;2024-01-11T06:02:52;35.97;;;12.35;;
20411;SDS011;10365;52.578;8.138;2024-01-11T06:05:17;32.85;;;12.95;;
20411;SDS011;10365;52.578;8.138;2024-01-11T06:07:42;23.27;;;9.95;;
20411;SDS011;10365;52.578;8.138;2024-01-11T06:10:08;30.02;;;12.60;;
20411;SDS011;10365;52.578;8.138;2024-01-11T06:12:34;45.38;;;13.13;;
20411;SDS011;10365;52.578;8.138;2024-01-11T06:14:59;36.17;;;11.85;;
20411;SDS011;10365;52.578;8.138;2024-01-11T06:17:24;41.40;;;14.00;;
20411;SDS011;10365;52.578;8.138;2024-01-11T06:19:50;54.00;;;16.50;;
20411;SDS011;10365;52.578;8.138;2024-01-11T06:22:17;107.63;;;23.92;;
20411;SDS011;10365;52.578;8.138;2024-01-11T06:24:43;88.00;;;26.50;;
20411;SDS011;10365;52.578;8.138;2024-01-11T06:27:08;76.75;;;23.67;;
20411;SDS011;10365;52.578;8.138;2024-01-11T06:29:33;71.95;;;25.38;;
20411;SDS011;10365;52.578;8.138;2024-01-11T06:31:59;49.95;;;18.27;;
20411;SDS011;10365;52.578;8.138;2024-01-11T06:34:27;50.13;;;16.77;;
20411;SDS011;10365;52.578;8.138;2024-01-11T06:36:53;56.30;;;15.30;;
20411;SDS011;10365;52.578;8.138;2024-01-11T06:39:19;30.33;;;13.80;;
20411;SDS011;10365;52.578;8.138;2024-01-11T06:41:44;33.33;;;14.10;;
20411;SDS011;10365;52.578;8.138;2024-01-11T06:44:09;42.92;;;15.27;;
20411;SDS011;10365;52.578;8.138;2024-01-11T06:46:34;41.90;;;15.80;;
20411;SDS011;10365;52.578;8.138;2024-01-11T06:49:01;46.28;;;15.23;;
20411;SDS011;10365;52.578;8.138;2024-01-11T06:51:26;30.75;;;13.77;;
20411;SDS011;10365;52.578;8.138;2024-01-11T06:53:51;26.65;;;12.07;;
20411;SDS011;10365;52.578;8.138;2024-01-11T06:56:18;25.23;;;11.73;;
20411;SDS011;10365;52.578;8.138;2024-01-11T06:58:44;26.38;;;11.32;;
20411;SDS011;10365;52.578;8.138;2024-01-11T07:01:09;29.15;;;12.40;;
20411;SDS011;10365;52.578;8.138;2024-01-11T07:03:35;27.20;;;12.15;;
20411;SDS011;10365;52.578;8.138;2024-01-11T07:06:01;33.42;;;10.82;;
20411;SDS011;10365;52.578;8.138;2024-01-11T07:08:26;28.55;;;12.23;;
20411;SDS011;10365;52.578;8.138;2024-01-11T07:10:51;34.22;;;13.07;;
20411;SDS011;10365;52.578;8.138;2024-01-11T07:13:16;28.30;;;13.27;;
20411;SDS011;10365;52.578;8.138;2024-01-11T07:15:42;39.30;;;15.75;;
20411;SDS011;10365;52.578;8.138;2024-01-11T07:18:08;38.75;;;16.00;;
20411;SDS011;10365;52.578;8.138;2024-01-11T07:20:33;39.38;;;16.67;;
20411;SDS011;10365;52.578;8.138;2024-01-11T07:22:58;33.40;;;14.02;;
20411;SDS011;10365;52.578;8.138;2024-01-11T07:25:24;36.92;;;14.35;;
20411;SDS011;10365;52.578;8.138;2024-01-11T07:27:49;33.40;;;13.88;;
20411;SDS011;10365;52.578;8.138;2024-01-11T07:30:14;28.90;;;13.27;;
20411;SDS011;10365;52.578;8.138;2024-01-11T07:32:40;36.45;;;13.90;;
20411;SDS011;10365;52.578;8.138;2024-01-11T07:35:05;28.65;;;12.10;;
20411;SDS011;10365;52.578;8.138;2024-01-11T07:37:31;39.45;;;15.20;;
20411;SDS011;10365;52.578;8.138;2024-01-11T07:39:57;29.95;;;13.32;;
20411;SDS011;10365;52.578;8.138;2024-01-11T07:42:22;35.95;;;14.35;;
20411;SDS011;10365;52.578;8.138;2024-01-11T07:44:47;34.22;;;13.73;;
20411;SDS011;10365;52.578;8.138;2024-01-11T07:47:12;38.47;;;13.88;;
20411;SDS011;10365;52.578;8.138;2024-01-11T07:49:38;39.22;;;14.32;;
20411;SDS011;10365;52.578;8.138;2024-01-11T07:52:04;48.40;;;16.27;;
20411;SDS011;10365;52.578;8.138;2024-01-11T07:54:30;44.95;;;16.10;;
20411;SDS011;10365;52.578;8.138;2024-01-11T07:56:56;53.38;;;16.17;;
20411;SDS011;10365;52.578;8.138;2024-01-11T07:59:21;52.67;;;15.85;;
20411;SDS011;10365;52.578;8.138;2024-01-11T08:01:47;56.42;;;19.17;;
20411;SDS011;10365;52.578;8.138;2024-01-11T08:04:13;60.13;;;18.92;;
20411;SDS011;10365;52.578;8.138;2024-01-11T08:06:39;56.28;;;18.73;;
20411;SDS011;10365;52.578;8.138;2024-01-11T08:09:04;60.53;;;17.95;;
20411;SDS011;10365;52.578;8.138;2024-01-11T08:11:30;63.03;;;18.67;;
20411;SDS011;10365;52.578;8.138;2024-01-11T08:13:56;57.90;;;19.27;;
20411;SDS011;10365;52.578;8.138;2024-01-11T08:16:21;71.88;;;18.45;;
20411;SDS011;10365;52.578;8.138;2024-01-11T08:18:47;75.78;;;19.88;;
20411;SDS011;10365;52.578;8.138;2024-01-11T08:21:14;71.78;;;19.65;;
20411;SDS011;10365;52.578;8.138;2024-01-11T08:23:40;69.18;;;19.08;;
20411;SDS011;10365;52.578;8.138;2024-01-11T08:26:10;62.63;;;18.83;;
20411;SDS011;10365;52.578;8.138;2024-01-11T08:28:35;65.65;;;20.08;;
20411;SDS011;10365;52.578;8.138;2024-01-11T08:31:01;68.57;;;22.25;;
20411;SDS011;10365;52.578;8.138;2024-01-11T08:33:30;64.70;;;20.85;;
20411;SDS011;10365;52.578;8.138;2024-01-11T08:35:55;70.88;;;21.83;;
20411;SDS011;10365;52.578;8.138;2024-01-11T08:38:20;72.32;;;22.42;;
20411;SDS011;10365;52.578;8.138;2024-01-11T08:40:45;80.53;;;21.33;;
20411;SDS011;10365;52.578;8.138;2024-01-11T08:43:11;69.32;;;22.00;;
20411;SDS011;10365;52.578;8.138;2024-01-11T08:45:36;78.88;;;22.77;;
20411;SDS011;10365;52.578;8.138;2024-01-11T08:48:01;75.75;;;21.48;;
20411;SDS011;10365;52.578;8.138;2024-01-11T08:50:27;79.93;;;22.60;;
20411;SDS011;10365;52.578;8.138;2024-01-11T08:52:52;63.05;;;20.17;;
20411;SDS011;10365;52.578;8.138;2024-01-11T08:55:20;69.40;;;20.90;;
20411;SDS011;10365;52.578;8.138;2024-01-11T08:57:45;72.90;;;21.20;;
20411;SDS011;10365;52.578;8.138;2024-01-11T09:00:11;75.60;;;21.13;;
20411;SDS011;10365;52.578;8.138;2024-01-11T09:02:36;76.65;;;23.63;;
20411;SDS011;10365;52.578;8.138;2024-01-11T09:05:01;58.90;;;21.13;;
20411;SDS011;10365;52.578;8.138;2024-01-11T09:07:30;78.63;;;22.95;;
20411;SDS011;10365;52.578;8.138;2024-01-11T09:09:55;79.78;;;23.08;;
20411;SDS011;10365;52.578;8.138;2024-01-11T09:12:21;67.80;;;21.17;;
20411;SDS011;10365;52.578;8.138;2024-01-11T09:14:47;73.15;;;20.20;;
20411;SDS011;10365;52.578;8.138;2024-01-11T09:17:12;67.45;;;18.95;;
20411;SDS011;10365;52.578;8.138;2024-01-11T09:19:37;68.28;;;20.52;;
20411;SDS011;10365;52.578;8.138;2024-01-11T09:22:05;81.07;;;21.55;;
20411;SDS011;10365;52.578;8.138;2024-01-11T09:24:30;73.47;;;21.45;;
20411;SDS011;10365;52.578;8.138;2024-01-11T09:26:56;77.05;;;23.30;;
20411;SDS011;10365;52.578;8.138;2024-01-11T09:29:21;74.85;;;21.95;;
20411;SDS011;10365;52.578;8.138;2024-01-11T09:31:46;69.72;;;22.42;;
20411;SDS011;10365;52.578;8.138;2024-01-11T09:34:11;80.38;;;22.30;;
20411;SDS011;10365;52.578;8.138;2024-01-11T09:36:37;82.22;;;22.52;;
20411;SDS011;10365;52.578;8.138;2024-01-11T09:39:04;79.60;;;22.67;;
20411;SDS011;10365;52.578;8.138;2024-01-11T09:41:31;76.22;;;24.38;;
20411;SDS011;10365;52.578;8.138;2024-01-11T09:43:56;72.53;;;22.25;;
20411;SDS011;10365;52.578;8.138;2024-01-11T09:46:24;88.90;;;23.58;;
20411;SDS011;10365;52.578;8.138;2024-01-11T09:48:49;69.05;;;21.48;;
20411;SDS011;10365;52.578;8.138;2024-01-11T09:51:15;76.57;;;23.50;;
20411;SDS011;10365;52.578;8.138;2024-01-11T09:53:40;63.50;;;21.25;;
20411;SDS011;10365;52.578;8.138;2024-01-11T09:56:08;69.30;;;21.02;;
20411;SDS011;10365;52.578;8.138;2024-01-11T09:58:34;61.45;;;21.45;;
20411;SDS011;10365;52.578;8.138;2024-01-11T10:01:01;76.60;;;23.20;;
20411;SDS011;10365;52.578;8.138;2024-01-11T10:03:27;71.28;;;22.67;;
20411;SDS011;10365;52.578;8.138;2024-01-11T10:05:54;77.55;;;22.52;;
20411;SDS011;10365;52.578;8.138;2024-01-11T10:08:22;81.70;;;23.45;;
20411;SDS011;10365;52.578;8.138;2024-01-11T10:10:47;63.30;;;22.52;;
20411;SDS011;10365;52.578;8.138;2024-01-11T10:13:13;70.30;;;22.08;;
20411;SDS011;10365;52.578;8.138;2024-01-11T10:15:38;58.65;;;21.35;;
20411;SDS011;10365;52.578;8.138;2024-01-11T10:18:04;70.38;;;20.45;;
20411;SDS011;10365;52.578;8.138;2024-01-11T10:20:29;66.72;;;24.90;;
20411;SDS011;10365;52.578;8.138;2024-01-11T10:22:57;63.25;;;20.75;;
20411;SDS011;10365;52.578;8.138;2024-01-11T10:25:22;78.30;;;23.02;;
20411;SDS011;10365;52.578;8.138;2024-01-11T10:27:47;73.15;;;21.13;;
20411;SDS011;10365;52.578;8.138;2024-01-11T10:30:13;61.80;;;20.73;;
20411;SDS011;10365;52.578;8.138;2024-01-11T10:32:41;65.03;;;20.90;;
20411;SDS011;10365;52.578;8.138;2024-01-11T10:35:06;72.22;;;25.98;;
20411;SDS011;10365;52.578;8.138;2024-01-11T10:37:32;58.88;;;19.38;;
20411;SDS011;10365;52.578;8.138;2024-01-11T10:40:03;78.60;;;25.20;;
20411;SDS011;10365;52.578;8.138;2024-01-11T10:42:34;61.42;;;19.10;;
20411;SDS011;10365;52.578;8.138;2024-01-11T10:45:02;64.57;;;22.00;;
20411;SDS011;10365;52.578;8.138;2024-01-11T10:47:30;66.63;;;21.02;;
20411;SDS011;10365;52.578;8.138;2024-01-11T10:49:55;63.13;;;20.70;;
20411;SDS011;10365;52.578;8.138;2024-01-11T10:52:22;55.22;;;21.40;;
20411;SDS011;10365;52.578;8.138;2024-01-11T10:54:52;63.50;;;21.58;;
20411;SDS011;10365;52.578;8.138;2024-01-11T10:57:17;75.35;;;25.17;;
20411;SDS011;10365;52.578;8.138;2024-01-11T10:59:43;61.92;;;22.63;;
20411;SDS011;10365;52.578;8.138;2024-01-11T11:02:09;76.05;;;22.38;;
20411;SDS011;10365;52.578;8.138;2024-01-11T11:04:38;57.40;;;21.30;;
20411;SDS011;10365;52.578;8.138;2024-01-11T11:07:03;70.43;;;20.92;;
20411;SDS011;10365;52.578;8.138;2024-01-11T11:09:32;62.20;;;21.63;;
20411;SDS011;10365;52.578;8.138;2024-01-11T11:11:58;69.80;;;22.73;;
20411;SDS011;10365;52.578;8.138;2024-01-11T11:14:23;64.68;;;22.10;;
20411;SDS011;10365;52.578;8.138;2024-01-11T11:16:49;65.25;;;21.80;;
20411;SDS011;10365;52.578;8.138;2024-01-11T11:19:15;64.40;;;21.75;;
20411;SDS011;10365;52.578;8.138;2024-01-11T11:21:44;78.68;;;23.13;;
20411;SDS011;10365;52.578;8.138;2024-01-11T11:24:10;66.07;;;22.20;;
20411;SDS011;10365;52.578;8.138;2024-01-11T11:26:35;63.15;;;22.92;;
20411;SDS011;10365;52.578;8.138;2024-01-11T11:29:01;63.38;;;22.17;;
20411;SDS011;10365;52.578;8.138;2024-01-11T11:34:01;61.67;;;20.67;;
20411;SDS011;10365;52.578;8.138;2024-01-11T11:36:29;64.63;;;20.80;;
20411;SDS011;10365;52.578;8.138;2024-01-11T11:38:54;56.33;;;21.13;;
20411;SDS011;10365;52.578;8.138;2024-01-11T11:41:25;67.45;;;21.50;;
20411;SDS011;10365;52.578;8.138;2024-01-11T11:43:51;63.60;;;21.67;;
20411;SDS011;10365;52.578;8.138;2024-01-11T11:46:16;58.33;;;21.83;;
20411;SDS011;10365;52.578;8.138;2024-01-11T11:48:51;59.97;;;22.38;;
20411;SDS011;10365;52.578;8.138;2024-01-11T11:51:20;66.95;;;22.98;;
20411;SDS011;10365;52.578;8.138;2024-01-11T11:53:46;64.65;;;22.90;;
20411;SDS011;10365;52.578;8.138;2024-01-11T11:56:12;71.03;;;22.02;;
20411;SDS011;10365;52.578;8.138;2024-01-11T11:58:40;63.95;;;22.20;;
20411;SDS011;10365;52.578;8.138;2024-01-11T12:01:05;61.70;;;20.42;;
20411;SDS011;10365;52.578;8.138;2024-01-11T12:05:57;50.92;;;20.23;;
20411;SDS011;10365;52.578;8.138;2024-01-11T12:08:22;64.10;;;21.23;;
20411;SDS011;10365;52.578;8.138;2024-01-11T12:10:48;61.17;;;21.35;;
20411;SDS011;10365;52.578;8.138;2024-01-11T12:13:13;55.92;;;19.20;;
20411;SDS011;10365;52.578;8.138;2024-01-11T12:15:38;63.67;;;20.88;;
20411;SDS011;10365;52.578;8.138;2024-01-11T12:18:04;60.72;;;21.88;;
20411;SDS011;10365;52.578;8.138;2024-01-11T12:20:29;54.78;;;19.00;;
20411;SDS011;10365;52.578;8.138;2024-01-11T12:22:54;62.63;;;21.42;;
20411;SDS011;10365;52.578;8.138;2024-01-11T12:25:20;61.63;;;20.38;;
20411;SDS011;10365;52.578;8.138;2024-01-11T12:27:46;55.80;;;18.77;;
20411;SDS011;10365;52.578;8.138;2024-01-11T12:30:12;49.05;;;19.00;;
20411;SDS011;10365;52.578;8.138;2024-01-11T12:32:39;53.97;;;18.02;;
20411;SDS011;10365;52.578;8.138;2024-01-11T12:35:05;57.90;;;19.80;;
20411;SDS011;10365;52.578;8.138;2024-01-11T12:37:30;58.08;;;19.23;;
20411;SDS011;10365;52.578;8.138;2024-01-11T12:39:57;50.67;;;17.42;;
20411;SDS011;10365;52.578;8.138;2024-01-11T12:42:22;55.17;;;18.40;;
20411;SDS011;10365;52.578;8.138;2024-01-11T12:44:48;55.28;;;20.35;;
20411;SDS011;10365;52.578;8.138;2024-01-11T12:47:15;151.48;;;62.55;;
20411;SDS011;10365;52.578;8.138;2024-01-11T12:49:44;53.40;;;20.48;;
20411;SDS011;10365;52.578;8.138;2024-01-11T12:52:19;43.10;;;17.52;;
20411;SDS011;10365;52.578;8.138;2024-01-11T12:54:51;45.38;;;17.23;;
20411;SDS011;10365;52.578;8.138;2024-01-11T12:57:17;54.80;;;17.92;;
20411;SDS011;10365;52.578;8.138;2024-01-11T12:59:43;53.92;;;16.20;;
20411;SDS011;10365;52.578;8.138;2024-01-11T13:02:08;53.40;;;18.17;;
20411;SDS011;10365;52.578;8.138;2024-01-11T13:04:35;50.67;;;17.40;;
20411;SDS011;10365;52.578;8.138;2024-01-11T13:07:02;41.03;;;15.73;;
20411;SDS011;10365;52.578;8.138;2024-01-11T13:09:27;47.03;;;16.73;;
20411;SDS011;10365;52.578;8.138;2024-01-11T13:11:53;51.90;;;16.48;;
20411;SDS011;10365;52.578;8.138;2024-01-11T13:14:19;45.60;;;16.77;;
20411;SDS011;10365;52.578;8.138;2024-01-11T13:16:45;45.72;;;16.05;;
20411;SDS011;10365;52.578;8.138;2024-01-11T13:19:10;51.03;;;17.38;;
20411;SDS011;10365;52.578;8.138;2024-01-11T13:21:36;48.33;;;17.90;;
20411;SDS011;10365;52.578;8.138;2024-01-11T13:24:02;49.05;;;17.63;;
20411;SDS011;10365;52.578;8.138;2024-01-11T13:26:29;44.50;;;17.48;;
20411;SDS011;10365;52.578;8.138;2024-01-11T13:28:54;47.00;;;16.00;;
20411;SDS011;10365;52.578;8.138;2024-01-11T13:31:19;47.50;;;16.77;;
20411;SDS011;10365;52.578;8.138;2024-01-11T13:33:46;46.55;;;16.13;;
20411;SDS011;10365;52.578;8.138;2024-01-11T13:36:11;45.50;;;16.83;;
20411;SDS011;10365;52.578;8.138;2024-01-11T13:38:36;46.72;;;20.48;;
20411;SDS011;10365;52.578;8.138;2024-01-11T13:41:02;46.15;;;18.23;;
20411;SDS011;10365;52.578;8.138;2024-01-11T13:43:27;50.75;;;19.17;;
20411;SDS011;10365;52.578;8.138;2024-01-11T13:45:53;45.15;;;17.88;;
20411;SDS011;10365;52.578;8.138;2024-01-11T13:48:19;51.80;;;17.63;;
20411;SDS011;10365;52.578;8.138;2024-01-11T13:50:45;43.30;;;17.25;;
20411;SDS011;10365;52.578;8.138;2024-01-11T13:53:10;37.78;;;15.48;;
20411;SDS011;10365;52.578;8.138;2024-01-11T13:55:35;45.63;;;17.05;;
20411;SDS011;10365;52.578;8.138;2024-01-11T13:58:04;39.80;;;14.75;;
20411;SDS011;10365;52.578;8.138;2024-01-11T14:00:31;48.20;;;15.75;;
20411;SDS011;10365;52.578;8.138;2024-01-11T14:02:56;36.00;;;15.70;;
20411;SDS011;10365;52.578;8.138;2024-01-11T14:05:22;49.17;;;16.95;;
20411;SDS011;10365;52.578;8.138;2024-01-11T14:07:48;42.78;;;16.25;;
20411;SDS011;10365;52.578;8.138;2024-01-11T14:10:14;41.20;;;15.75;;
20411;SDS011;10365;52.578;8.138;2024-01-11T14:12:40;37.67;;;15.73;;
20411;SDS011;10365;52.578;8.138;2024-01-11T14:15:06;36.42;;;15.73;;
20411;SDS011;10365;52.578;8.138;2024-01-11T14:17:32;45.88;;;16.25;;
20411;SDS011;10365;52.578;8.138;2024-01-11T14:19:57;39.47;;;15.32;;